Pagrindinis puslapis
METAR-TAF:

METAR-TAF

Oro uostai :

Korientesas, Argentina

platuma: 27-27S, ilguma: 058-46W, Aukštis: 62 m

Dabartinis oras

Ataskaita buvo paskelbta 39 minutes, ne 15:00 UTC
Vėjas 7 kt iš Rytų
Temperatūra 29°C
Drėgmė 43%
Slėgis 1010 hPa
Matomumas 10 km arba daugiau
nėra debesų žemiau 1500 m ir nėra kamuolinių lietaus debesų

METAR: SARC 171500Z 09007KT CAVOK 29/15 Q1010

Laikas: 12:39 (15:39 UTC)


TAF: trūkstamas

Orai ataskaitas ir orų prognozės (METAR, TAF).

turimą stotys yra geltonos ir raudonos taškus žemėlapyje.

Perkelti pele per norėdami pamatyti stoties vardą.

Tada spustelėkite, norėdami matyti oro stebėjimo ir prognozės.

Norėdami pakeisti žemėlapį: spustelėkite ant žalios mygtukų su juodo kryžiaus žemyn,; žalią mygtuką su brūkšneliu, jei norite nutolinti; arba žalių rodyklių gretimoms žemėlapius.


METAR-TAF: